Olympia, Kentucky
Current Conditions -  °F | °C
As of 6:30 PM on Monday 20 Oct 2014 (Local Time) from KSYM Reporting Station
Overcast Overcast  
Wind Chill: 59°   Ceiling: 5000
Heat Index: 59°   Visibility: 10mi
Dew Point: 46°   Wind: 6mph
Humidity: 63%   Direction: 230°SW
Pressure: 29.94"   Gusts: 12mph
Location:  38.1°N, 83.7°W
Report Text: KSYM 202230Z AUTO 23005G10KT 10SM OVC050 15/08 A2994 RMK AO2
Loading
Personal Weather Stations






























Interactive Weather Map New forecast layout! Learn more

10-Day Weather Forecast

Advertisements
Track Severe Weather on mobile